航空気象通報

ウインドサーファーのための航空気象通報による風予報です。

8/31-9/1の航空気象通報(国内、海外)

2010年08月31日 23時23分52秒 | TAF
羽田空港
TAF RJTT 310837Z 3109/0112 18010KT 9999 FEW030
BECMG 3118/3121 09004KT
BECMG 0100/0103 18010KT
日本時間31日18時-1日03時:180度から10ノットの風
03-06時:風が変化
06-09時:090度から4ノットの風
09-12時:風が変化
12-21時:180度から10ノットの風


富士山静岡空港
TAF RJNS 310838Z 3109/0112 22006KT 9999 FEW020 SCT050
BECMG 3121/3124 16008KT
日本時間31日18時-1日06時:220度から6ノットの風
06-09時:風が変化
09-21時:160度から8ノットの風


那覇空港
TAF AMD ROAH 311018Z 3110/0112 24030KT 8000 -SHRA FEW008 SCT015 BKN020
TEMPO 3110/3115 24035G50KT 2000 +SHRA FEW008 SCT015 BKN020 FEW025CB
BECMG 3115/3117 18022KT
日本時間31日19-24時:240度から30ノットの風
但し、19-24時の間:一時、240度から35ノット、突風50ノット
1日00-02時:風が変化
02-21時:180度から22ノットの風


マウイのカフルイ空港
TAF PHOG 311120Z 3112/0112 06010KT P6SM FEW060
FM312000 04017G24KT P6SM SCT060
FM010700 05011KT P6SM SCT060
ハワイ時間31日02-10時:060度から10ノットの風
10-21時:040度から17ノット、突風24ノット
21時-1日02時:050度から11ノットの風


サイパン空港
TAF AMD PGSN 311316Z 3113/0112 13008KT P6SM VCSH FEW018 SCT030 BKN080
TEMPO 3113/3115 13012G22KT 5SM SHRA SCT016 BKN025 OVC050
マリアナ時間31日23時-1日22時:130度から8ノットの風

但し、31日23時-1日01時の間:一時、130度から12ノット、突風22ノット、
コメント
この記事をはてなブックマークに追加

8/30-8/31の航空気象通報(国内、海外)

2010年08月30日 23時35分21秒 | TAF
羽田空港
TAF RJTT 300837Z 3009/3112 18008KT 9999 FEW030
日本時間30日18時-31日21時:180度から8ノットの風


富士山静岡空港
TAF RJNS 300839Z 3009/3112 26006KT 9999 FEW020
BECMG 3100/3103 16010KT
BECMG 3109/3112 22006KT
日本時間30日18時-31日09時:260度から6ノットの風
09-12時:風が変化
12-18時:160度から10ノットの風
18-21時:風が変化
21時:220度から6ノットの風


那覇空港
TAF ROAH 300859Z 3009/3112 07018KT 8000 FEW015 SCT020 BKN025
BECMG 3018/3021 03030KT
TEMPO 3018/3021 03034G45KT 3000 SHRA FEW008 SCT015 BKN020 FEW025CB
TEMPO 3021/3103 03040G55KT 3000 SHRA FEW008 SCT015 BKN020 FEW025CB
BECMG 3103/3106 24040KT
TEMPO 3103/3109 24045G60KT 3000 +SHRA FEW006 SCT010 BKN015 FEW020CB
BECMG 3109/3112 20030KT
TEMPO 3109/3112 20034G45KT
日本時間30日18時-31日03時:070度から18ノットの風
03-06時:風が変化
06-12時:030度から30ノットの風
但し、03-06時の間:一時、030度から34ノット、突風45ノット
但し、06-12時の間:一時、030度から40ノット、突風55ノット
12-15時:風が変化
15-18時:240度から40ノットの風
但し、12-18時の間:一時、240度から45ノット、突風60ノット
18-21時:風が変化
21時:200度から30ノットの風
但し、18-21時の間:一時、200度から34ノット、突風45ノット

但し、03-06時の間:一時、
但し、06-12時の間:一時、
但し、12-18時の間:一時、

マウイのカフルイ空港
TAF PHOG 301120Z 3012/3112 04011KT P6SM FEW050
FM302100 04019G25KT P6SM FEW050
FM310500 05010KT P6SM SCT050
ハワイ時間30日02-11時:040度から11ノットの風
11-19時:040度から19ノット、突風25ノット
19時-31日02時:050度から10ノットの風


サイパン空港
TAF PGSN 301133Z 3012/3112 07007KT P6SM SCT020 SCT040
マリアナ時間30日22時-31日22時:070度から7ノットの風
コメント
この記事をはてなブックマークに追加

8/29-8/30の航空気象通報(国内、海外)

2010年08月29日 22時52分37秒 | TAF
羽田空港
TAF RJTT 290842Z 2909/3012 18010KT 9999 FEW030
BECMG 2916/2918 05004KT
TEMPO 2918/2921 4000 BR BKN009 BKN012
BECMG 3000/3003 16010KT
日本時間29日18時-30日01時:180度から10ノットの風
01-03時:風が変化
03-09時:050度から4ノットの風
09-12時:風が変化
12-21時:160度から10ノットの風

但し、30日03-06時の間:一時、、もや

富士山静岡空港
TAF RJNS 290843Z 2909/3012 26006KT 9000 FEW009 SCT015
日本時間29日18時-30日21時:260度から6ノットの風


那覇空港
TAF ROAH 290853Z 2909/3012 15012KT 9999 FEW015 SCT025
日本時間29日18時-30日21時:150度から12ノットの風


マウイのカフルイ空港
TAF PHOG 291120Z 2912/3012 05011G18KT P6SM FEW030 SCT050
FM292000 04020G29KT P6SM FEW035 SCT050
FM300500 04014G23KT P6SM FEW030 SCT045
FM300800 04010G15KT P6SM FEW040
ハワイ時間29日02-10時:050度から11ノット、突風18ノット
10-19時:040度から20ノット、突風29ノット
19-22時:040度から14ノット、突風23ノット
22時-30日02時:040度から10ノット、突風15ノット


サイパン空港
TAF PGSN 291136Z 2912/3012 01006KT P6SM FEW020
FM300000 10008KT P6SM VCSH SCT020
マリアナ時間29日22時-30日10時:010度から6ノットの風
10-22時:100度から8ノットの風

コメント
この記事をはてなブックマークに追加

8/27-8/28の航空気象通報(国内、海外)

2010年08月28日 21時43分38秒 | TAF
羽田空港
TAF RJTT 280840Z 2809/2912 20016KT 9999 FEW030
BECMG 2818/2821 23006KT
BECMG 2900/2903 18016KT
日本時間28日18時-29日03時:200度から16ノットの風
03-06時:風が変化
06-09時:230度から6ノットの風
09-12時:風が変化
12-21時:180度から16ノットの風


富士山静岡空港
TAF RJNS 280843Z 2809/2912 25006KT 9999 FEW020
日本時間28日18時-29日21時:250度から6ノットの風


那覇空港
TAF ROAH 280854Z 2809/2912 18008KT 9999 FEW010 SCT015
TEMPO 2809/2812 2000 +SHRA FEW008 BKN015 SCT020CB
TEMPO 2815/2821 4000 SHRA
日本時間28日18時-29日21時:180度から8ノットの風

但し、28日18-21時の間:一時、
但し、29日00-06時の間:一時、

マウイのカフルイ空港
TAF PHOG 281137Z 2812/2912 05010G18KT P6SM BKN050
FM281900 04018G25KT P6SM FEW035 SCT050
FM290400 04012G20KT P6SM FEW035 SCT050
ハワイ時間28日02-09時:050度から10ノット、突風18ノット
09-18時:040度から18ノット、突風25ノット
18時-29日02時:040度から12ノット、突風20ノット


サイパン空港
TAF PGSN 281130Z 2812/2912 10010KT P6SM VCSH FEW020
マリアナ時間28日22時-29日21時:100度から10ノットの風

コメント
この記事をはてなブックマークに追加

8/26-8/27の航空気象通報(国内、海外)

2010年08月28日 00時05分58秒 | TAF
羽田空港
TAF RJTT 270839Z 2709/2812 19014KT 9999 FEW030
日本時間27日18時-28日21時:190度から14ノットの風


富士山静岡空港
TAF RJNS 270842Z 2709/2812 24005KT 9999 FEW010 SCT020
BECMG 2800/2803 19008KT
BECMG 2806/2809 21010KT
日本時間27日18時-28日09時:240度から5ノットの風
09-12時:風が変化
12-15時:190度から8ノットの風
15-18時:風が変化
18-21時:210度から10ノットの風


那覇空港
TAF AMD ROAH 271340Z 2713/2812 18011KT 9999 SCT015
TEMPO 2713/2721 3000 TSRA FEW010 BKN020 FEW025CB
日本時間27日22時-28日21時:180度から11ノットの風

但し、27日22時-28日06時の間:一時、

マウイのカフルイ空港
TAF PHOG 271135Z 2712/2812 04011KT P6SM SCT050
FM271900 05019G27KT P6SM FEW040 SCT050
FM280500 04012KT P6SM SCT050
ハワイ時間27日02-09時:040度から11ノットの風
09-19時:050度から19ノット、突風27ノット
19時-28日02時:040度から12ノットの風


サイパン空港
TAF PGSN 271136Z 2712/2812 10010KT P6SM VCSH FEW018 SCT040 BKN120
マリアナ時間27日22時-28日21時:100度から10ノットの風

コメント
この記事をはてなブックマークに追加